Time;durP1;ratioP1;P1;durP2;ratioP2;P2;SDS_P1;SDS_P2;PMS_P1;PMS_P2;Temp;Humidity;BMP_temperature;BMP_pressure;BME280_temperature;BME280_humidity;BME280_pressure;Samples;Min_cycle;Max_cycle;Signal;HPM_P1;HPM_P2
2023/01/13 00:01:18;;;;;;;15.10;8.50;;;;;;;6.96;93.00;100195.32;105051;1258;100132;-74
2023/01/13 00:04:04;;;;;;;16.40;8.20;;;;;;;6.97;93.11;100194.21;105234;1257;99165;-75
2023/01/13 00:06:49;;;;;;;23.70;9.50;;;;;;;6.98;92.95;100190.76;105176;1258;97894;-75
2023/01/13 00:09:35;;;;;;;21.90;9.00;;;;;;;6.98;93.00;100193.09;105105;1261;98403;-75
2023/01/13 00:12:20;;;;;;;20.70;9.10;;;;;;;6.97;93.17;100190.83;105133;1261;101424;-75
2023/01/13 00:15:07;;;;;;;24.30;9.60;;;;;;;6.97;93.20;100192.60;105171;1261;100332;-75
2023/01/13 00:17:53;;;;;;;19.80;9.10;;;;;;;6.98;93.42;100195.31;105005;1264;98930;-75
2023/01/13 00:20:39;;;;;;;19.90;9.60;;;;;;;6.98;93.48;100192.45;105103;1257;98549;-75
2023/01/13 00:23:26;;;;;;;20.10;9.70;;;;;;;6.96;93.39;100190.36;105110;1262;98594;-74
2023/01/13 00:26:15;;;;;;;26.20;9.60;;;;;;;6.95;93.50;100190.70;105153;1262;101353;-75
2023/01/13 00:29:00;;;;;;;20.80;9.40;;;;;;;6.93;93.65;100191.77;106813;1261;100270;-76
2023/01/13 00:31:48;;;;;;;23.60;9.30;;;;;;;6.92;93.78;100187.98;105186;1263;98574;-74
2023/01/13 00:34:33;;;;;;;23.10;10.50;;;;;;;6.91;93.87;100184.77;105080;1261;98062;-74
2023/01/13 00:37:19;;;;;;;21.10;10.10;;;;;;;6.91;93.90;100182.27;105228;1259;99633;-75
2023/01/13 00:40:05;;;;;;;19.80;9.50;;;;;;;6.91;94.01;100178.58;105056;1258;101562;-74
2023/01/13 00:45:55;;;;;;;20.90;10.00;;;;;;;6.89;94.04;100177.60;105072;1262;97939;-77
2023/01/13 00:48:40;;;;;;;19.40;10.30;;;;;;;6.88;94.18;100176.23;105049;1261;97962;-75
2023/01/13 00:51:26;;;;;;;18.20;10.40;;;;;;;6.87;94.15;100175.33;105126;1259;97962;-75
2023/01/13 00:54:11;;;;;;;21.00;9.50;;;;;;;6.87;94.19;100171.64;105160;1261;102599;-75
2023/01/13 00:56:57;;;;;;;21.60;10.10;;;;;;;6.86;94.31;100168.14;105109;1258;99234;-75
2023/01/13 00:59:43;;;;;;;20.30;9.30;;;;;;;6.84;94.38;100172.04;105111;1259;97962;-75
2023/01/13 01:02:28;;;;;;;20.50;9.70;;;;;;;6.84;94.43;100171.08;105079;1261;98053;-75
2023/01/13 01:05:14;;;;;;;22.90;8.80;;;;;;;6.83;94.52;100171.31;105116;1259;98048;-74
2023/01/13 01:08:00;;;;;;;23.00;10.20;;;;;;;6.80;94.78;100165.21;105146;1259;101346;-74
2023/01/13 01:10:45;;;;;;;22.90;10.40;;;;;;;6.78;94.97;100161.13;105044;1258;99069;-75
2023/01/13 01:13:32;;;;;;;21.50;9.10;;;;;;;6.75;95.34;100155.88;105143;1261;98933;-75
2023/01/13 01:16:19;;;;;;;18.50;9.60;;;;;;;6.73;95.50;100154.48;105170;1261;98107;-74
2023/01/13 01:19:06;;;;;;;20.60;9.40;;;;;;;6.72;95.67;100149.84;105070;1261;98055;-74
2023/01/13 01:21:51;;;;;;;20.90;10.60;;;;;;;6.73;95.84;100150.67;105096;1257;101437;-74
2023/01/13 01:24:37;;;;;;;19.90;9.70;;;;;;;6.74;95.89;100147.20;105098;1263;100336;-77
2023/01/13 01:27:23;;;;;;;20.60;10.00;;;;;;;6.74;95.78;100141.84;105031;1263;97956;-76
2023/01/13 01:30:09;;;;;;;22.10;10.30;;;;;;;6.74;95.86;100139.59;105086;1261;97993;-77
2023/01/13 01:32:56;;;;;;;18.40;8.70;;;;;;;6.75;95.84;100135.56;105103;1259;98578;-76
2023/01/13 01:35:41;;;;;;;14.80;8.10;;;;;;;6.75;95.77;100135.49;105116;1261;101341;-74
2023/01/13 01:38:27;;;;;;;18.20;8.20;;;;;;;6.75;95.68;100132.16;104920;1264;99189;-74
2023/01/13 01:41:24;;;;;;;20.70;9.20;;;;;;;6.77;95.84;100130.20;105059;1258;99002;-74
2023/01/13 01:44:41;;;;;;;18.60;9.00;;;;;;;6.77;95.93;100124.64;105362;1258;97953;-75
2023/01/13 01:47:29;;;;;;;18.70;8.80;;;;;;;6.77;95.91;100123.06;105199;1258;98475;-75
2023/01/13 01:50:17;;;;;;;20.50;8.80;;;;;;;6.77;96.04;100120.87;105095;1264;103919;-75
2023/01/13 01:53:12;;;;;;;20.80;9.30;;;;;;;6.77;96.41;100116.48;105085;1260;99269;-75
2023/01/13 01:55:59;;;;;;;19.10;7.70;;;;;;;6.77;96.52;100109.16;105238;1261;97977;-77
2023/01/13 01:58:49;;;;;;;18.10;7.80;;;;;;;6.78;96.60;100110.48;105779;1257;97929;-77
2023/01/13 02:01:36;;;;;;;16.60;8.50;;;;;;;6.79;96.64;100105.93;108177;1261;95599;-75
2023/01/13 02:04:27;;;;;;;16.40;8.10;;;;;;;6.79;96.64;100103.80;105348;1261;101339;-74
2023/01/13 02:07:13;;;;;;;15.20;8.80;;;;;;;6.79;96.69;100102.20;105194;1259;100137;-75
2023/01/13 02:10:05;;;;;;;17.20;7.80;;;;;;;6.79;96.75;100103.66;105106;1264;99629;-74
2023/01/13 02:12:52;;;;;;;17.90;7.70;;;;;;;6.79;96.73;100099.23;105029;1259;98062;-75
2023/01/13 02:15:40;;;;;;;14.10;7.70;;;;;;;6.80;96.82;100091.31;105156;1261;99635;-76
2023/01/13 02:18:39;;;;;;;17.10;8.20;;;;;;;6.80;96.81;100090.72;105147;1262;101324;-75
2023/01/13 02:21:53;;;;;;;15.00;7.30;;;;;;;6.79;96.98;100090.52;105065;1261;99080;-75
2023/01/13 02:24:54;;;;;;;14.30;7.50;;;;;;;6.79;97.46;100088.23;104992;1262;98957;-75
2023/01/13 02:28:01;;;;;;;16.30;7.80;;;;;;;6.78;97.60;100087.13;105176;1264;97968;-76
2023/01/13 02:34:11;;;;;;;14.30;7.20;;;;;;;6.76;97.91;100079.73;105145;1261;101380;-74
2023/01/13 02:37:04;;;;;;;15.20;7.90;;;;;;;6.76;97.99;100077.16;105273;1259;99064;-74
2023/01/13 02:39:58;;;;;;;15.10;7.80;;;;;;;6.77;97.98;100078.73;105085;1261;98377;-76
2023/01/13 02:46:30;;;;;;;13.50;7.70;;;;;;;6.74;98.19;100076.05;105070;1263;98487;-76
2023/01/13 02:49:24;;;;;;;15.00;7.90;;;;;;;6.73;98.33;100077.54;105151;1272;103008;-75
2023/01/13 02:52:20;;;;;;;17.20;7.60;;;;;;;6.73;98.39;100073.48;104992;1264;99337;-76
2023/01/13 02:55:12;;;;;;;15.90;7.40;;;;;;;6.74;98.35;100070.89;105070;1261;99000;-75
2023/01/13 02:58:00;;;;;;;14.40;7.10;;;;;;;6.75;98.36;100066.90;105147;1261;98061;-75
2023/01/13 03:00:47;;;;;;;17.00;7.00;;;;;;;6.76;98.42;100067.61;105100;1264;97959;-74
2023/01/13 03:03:35;;;;;;;14.10;7.10;;;;;;;6.76;98.65;100067.04;105051;1257;102378;-74
2023/01/13 03:06:32;;;;;;;14.50;6.90;;;;;;;6.76;98.76;100062.98;105137;1263;99073;-75
2023/01/13 03:09:26;;;;;;;13.80;7.50;;;;;;;6.76;98.91;100063.31;105050;1261;98955;-75
2023/01/13 03:12:23;;;;;;;15.80;7.60;;;;;;;6.77;98.92;100063.13;104998;1258;98089;-75
2023/01/13 03:15:21;;;;;;;10.20;6.00;;;;;;;6.76;99.30;100059.75;105113;1259;99308;-75
2023/01/13 03:18:07;;;;;;;14.90;7.20;;;;;;;6.75;99.60;100054.98;105130;1261;101967;-75
2023/01/13 03:21:08;;;;;;;17.20;7.50;;;;;;;6.74;99.84;100053.98;105148;1262;99085;-74
2023/01/13 03:24:16;;;;;;;16.30;6.70;;;;;;;6.74;99.90;100052.55;105092;1259;98514;-74
2023/01/13 03:27:14;;;;;;;15.60;7.30;;;;;;;6.75;99.95;100052.48;105065;1275;99137;-75
2023/01/13 03:30:06;;;;;;;13.00;6.80;;;;;;;6.75;100.00;100050.18;105084;1265;98720;-74
2023/01/13 03:32:58;;;;;;;10.30;6.00;;;;;;;6.74;100.00;100051.66;105002;1259;101358;-74
2023/01/13 03:35:47;;;;;;;10.60;6.20;;;;;;;6.74;100.00;100047.30;105025;1259;100121;-75
2023/01/13 03:38:38;;;;;;;14.30;7.30;;;;;;;6.73;100.00;100041.19;104965;1261;97978;-75
2023/01/13 03:41:33;;;;;;;16.20;8.30;;;;;;;6.71;100.00;100047.20;105051;1261;97956;-74
2023/01/13 03:44:26;;;;;;;12.90;7.00;;;;;;;6.70;100.00;100048.81;104989;1264;98487;-74
2023/01/13 03:47:20;;;;;;;9.50;6.50;;;;;;;6.70;100.00;100047.91;105091;1261;101327;-74
2023/01/13 03:50:16;;;;;;;15.90;6.80;;;;;;;6.70;100.00;100044.32;105100;1262;99066;-75
2023/01/13 03:53:44;;;;;;;10.90;6.40;;;;;;;6.71;100.00;100044.05;105062;1261;99000;-76
2023/01/13 03:56:38;;;;;;;12.90;6.40;;;;;;;6.71;100.00;100041.73;105024;1264;97960;-75
2023/01/13 03:59:36;;;;;;;12.20;7.20;;;;;;;6.70;100.00;100038.27;105102;1262;97971;-76
2023/01/13 04:02:39;;;;;;;15.10;8.00;;;;;;;6.70;100.00;100038.80;105058;1272;102650;-75
2023/01/13 04:05:26;;;;;;;15.70;7.00;;;;;;;6.70;100.00;100039.11;105022;1263;99061;-73
2023/01/13 04:08:22;;;;;;;14.50;7.90;;;;;;;6.69;100.00;100037.90;105136;1259;98456;-74
2023/01/13 04:11:21;;;;;;;14.20;8.40;;;;;;;6.69;100.00;100036.27;105807;1260;97979;-75
2023/01/13 04:14:09;;;;;;;11.60;7.10;;;;;;;6.71;100.00;100034.74;105052;1262;98558;-74
2023/01/13 04:16:55;;;;;;;14.90;7.90;;;;;;;6.70;100.00;100034.64;105073;1259;102641;-75
2023/01/13 04:19:40;;;;;;;14.20;6.70;;;;;;;6.69;100.00;100032.27;105073;1261;99107;-75
2023/01/13 04:22:26;;;;;;;12.30;6.30;;;;;;;6.69;100.00;100029.80;105012;1259;99097;-75
2023/01/13 04:25:12;;;;;;;12.10;7.60;;;;;;;6.68;100.00;100027.93;105057;1261;98001;-74
2023/01/13 04:27:58;;;;;;;11.60;6.80;;;;;;;6.68;100.00;100028.48;105146;1260;97945;-74
2023/01/13 04:30:44;;;;;;;14.30;7.60;;;;;;;6.67;100.00;100027.80;105047;1265;101325;-76
2023/01/13 04:33:29;;;;;;;9.30;7.00;;;;;;;6.67;100.00;100027.88;105481;1262;100323;-74
2023/01/13 04:36:15;;;;;;;9.40;6.40;;;;;;;6.67;100.00;100024.55;105079;1262;99579;-74
2023/01/13 04:39:02;;;;;;;14.00;7.30;;;;;;;6.67;100.00;100024.19;105015;1262;97968;-74
2023/01/13 04:41:56;;;;;;;8.60;6.60;;;;;;;6.67;100.00;100024.85;105083;1259;98280;-75
2023/01/13 04:44:42;;;;;;;12.70;6.80;;;;;;;6.67;100.00;100021.98;105099;1259;102373;-75
2023/01/13 04:47:28;;;;;;;10.00;6.70;;;;;;;6.68;100.00;100020.11;105079;1263;101231;-76
2023/01/13 04:50:18;;;;;;;13.00;6.80;;;;;;;6.68;100.00;100023.81;105046;1265;98127;-76
2023/01/13 04:53:03;;;;;;;8.50;6.10;;;;;;;6.68;100.00;100020.79;105068;1264;99133;-74
2023/01/13 04:55:49;;;;;;;10.20;6.50;;;;;;;6.68;100.00;100021.64;104885;1258;98397;-76
2023/01/13 04:58:34;;;;;;;10.40;6.30;;;;;;;6.70;100.00;100019.17;105059;1264;102105;-75
2023/01/13 05:01:20;;;;;;;9.70;5.90;;;;;;;6.71;100.00;100019.36;105161;1263;100049;-74
2023/01/13 05:04:06;;;;;;;7.90;5.90;;;;;;;6.72;100.00;100020.19;105210;1264;99085;-74
2023/01/13 05:06:51;;;;;;;7.50;5.50;;;;;;;6.73;100.00;100019.76;105065;1263;99282;-74
2023/01/13 05:09:37;;;;;;;8.80;5.80;;;;;;;6.74;100.00;100020.31;105089;1264;98437;-74
2023/01/13 05:18:32;;;;;;;14.50;6.40;;;;;;;6.75;100.00;100017.39;105031;1263;98079;-75
2023/01/13 05:27:26;;;;;;;9.70;5.90;;;;;;;6.77;100.00;100017.76;105066;1262;101454;-76
2023/01/13 05:30:12;;;;;;;9.80;6.10;;;;;;;6.78;100.00;100017.89;105074;1262;99371;-75
2023/01/13 05:32:58;;;;;;;11.60;5.80;;;;;;;6.78;100.00;100018.22;104988;1263;98110;-75
2023/01/13 05:35:45;;;;;;;9.80;5.60;;;;;;;6.79;100.00;100016.55;105081;1264;99120;-75
2023/01/13 05:38:31;;;;;;;7.90;5.00;;;;;;;6.79;100.00;100015.99;105138;1264;97901;-75
2023/01/13 05:44:21;;;;;;;8.60;5.70;;;;;;;6.80;100.00;100017.80;105053;1263;99972;-75
2023/01/13 05:47:07;;;;;;;7.30;6.20;;;;;;;6.81;100.00;100018.58;104973;1263;98389;-75
2023/01/13 05:49:52;;;;;;;8.60;5.80;;;;;;;6.83;100.00;100022.48;105080;1272;99511;-76
2023/01/13 05:52:37;;;;;;;10.30;6.40;;;;;;;6.83;100.00;100026.14;105029;1259;97973;-74
2023/01/13 05:55:23;;;;;;;9.00;7.00;;;;;;;6.84;100.00;100024.10;105049;1262;102276;-75
2023/01/13 05:58:10;;;;;;;10.60;6.10;;;;;;;6.85;100.00;100026.99;105109;1263;100281;-75
2023/01/13 06:01:01;;;;;;;10.60;5.90;;;;;;;6.85;100.00;100027.70;105114;1263;97975;-75
2023/01/13 06:03:46;;;;;;;9.20;5.60;;;;;;;6.86;100.00;100028.81;104882;1264;97860;-74
2023/01/13 06:06:31;;;;;;;6.60;5.30;;;;;;;6.87;100.00;100028.75;105071;1263;98000;-73
2023/01/13 06:09:17;;;;;;;8.60;5.60;;;;;;;6.87;100.00;100030.63;105110;1265;101435;-73
2023/01/13 06:12:03;;;;;;;8.30;5.60;;;;;;;6.88;100.00;100033.77;105025;1263;100364;-76
2023/01/13 06:14:48;;;;;;;7.30;5.50;;;;;;;6.88;100.00;100038.19;105060;1262;98276;-75
2023/01/13 06:17:34;;;;;;;9.40;6.30;;;;;;;6.88;100.00;100037.98;105083;1263;99171;-76
2023/01/13 06:20:19;;;;;;;9.70;5.60;;;;;;;6.89;100.00;100041.23;105032;1267;98477;-74
2023/01/13 06:23:09;;;;;;;11.50;6.10;;;;;;;6.90;100.00;100040.02;105095;1263;102602;-74
2023/01/13 06:26:04;;;;;;;12.10;6.10;;;;;;;6.91;100.00;100042.75;105160;1264;99155;-75
2023/01/13 06:28:50;;;;;;;11.20;5.70;;;;;;;6.92;100.00;100041.55;105502;1264;99845;-74
2023/01/13 06:31:38;;;;;;;15.10;6.20;;;;;;;6.94;100.00;100043.17;105065;1262;98061;-74
2023/01/13 06:34:23;;;;;;;7.00;4.80;;;;;;;6.94;100.00;100042.23;105030;1263;98477;-75
2023/01/13 06:37:11;;;;;;;9.20;5.50;;;;;;;6.95;100.00;100036.30;105127;1264;101324;-75
2023/01/13 06:40:00;;;;;;;10.70;5.40;;;;;;;6.96;100.00;100035.64;105037;1258;99079;-75
2023/01/13 06:45:52;;;;;;;9.60;5.20;;;;;;;6.97;100.00;100040.17;105089;1264;97959;-76
2023/01/13 06:48:37;;;;;;;12.30;5.60;;;;;;;6.97;100.00;100048.23;105098;1263;98420;-74
2023/01/13 06:51:23;;;;;;;9.10;6.50;;;;;;;6.97;100.00;100047.04;105074;1262;102715;-74
2023/01/13 06:54:09;;;;;;;11.30;6.00;;;;;;;6.97;100.00;100047.09;105074;1265;100553;-75
2023/01/13 06:56:54;;;;;;;12.70;6.80;;;;;;;6.97;100.00;100047.63;105084;1264;98708;-74
2023/01/13 06:59:40;;;;;;;8.00;5.40;;;;;;;6.97;100.00;100043.33;105079;1260;97949;-74
2023/01/13 07:02:27;;;;;;;13.50;5.20;;;;;;;6.98;100.00;100043.45;105070;1265;99145;-74
2023/01/13 07:05:13;;;;;;;9.70;5.60;;;;;;;6.98;100.00;100038.70;105037;1263;101414;-74
2023/01/13 07:08:00;;;;;;;10.80;5.50;;;;;;;6.99;100.00;100040.41;105031;1259;99080;-75
2023/01/13 07:10:45;;;;;;;10.00;5.00;;;;;;;7.00;100.00;100039.08;104995;1275;99158;-74
2023/01/13 07:16:37;;;;;;;6.90;5.20;;;;;;;7.02;100.00;100041.12;105041;1265;98592;-75
2023/01/13 07:19:23;;;;;;;9.20;5.10;;;;;;;7.03;100.00;100039.98;105025;1260;102577;-75
2023/01/13 07:22:12;;;;;;;11.60;5.60;;;;;;;7.03;100.00;100041.38;104994;1263;100369;-75
2023/01/13 07:24:57;;;;;;;9.60;5.00;;;;;;;7.05;100.00;100046.04;105201;1264;98018;-75
2023/01/13 07:27:43;;;;;;;11.50;6.10;;;;;;;7.05;100.00;100043.84;105050;1277;97973;-75
2023/01/13 07:30:28;;;;;;;10.30;4.90;;;;;;;7.06;100.00;100041.96;105138;1263;98490;-75
2023/01/13 07:33:14;;;;;;;8.70;4.60;;;;;;;7.07;100.00;100046.12;105113;1261;102261;-75
2023/01/13 07:36:03;;;;;;;7.80;4.20;;;;;;;7.07;100.00;100047.91;104858;1266;99071;-74
2023/01/13 07:38:49;;;;;;;9.10;5.30;;;;;;;7.07;100.00;100047.73;105077;1263;98972;-75
2023/01/13 07:44:39;;;;;;;8.00;4.10;;;;;;;7.08;100.00;100046.83;105091;1262;98407;-74
2023/01/13 07:47:25;;;;;;;7.90;4.70;;;;;;;7.10;100.00;100045.59;105098;1270;102017;-75
2023/01/13 07:50:10;;;;;;;8.60;4.30;;;;;;;7.11;100.00;100045.45;105138;1264;99078;-76
2023/01/13 07:52:58;;;;;;;9.30;4.80;;;;;;;7.11;100.00;100041.52;105092;1257;97997;-75
2023/01/13 07:55:44;;;;;;;6.10;4.10;;;;;;;7.12;100.00;100042.48;105108;1264;97964;-76
2023/01/13 07:58:29;;;;;;;9.80;4.50;;;;;;;7.13;100.00;100040.77;104984;1261;98437;-74
2023/01/13 08:01:16;;;;;;;8.80;4.00;;;;;;;7.14;100.00;100043.34;105059;1263;102087;-74
2023/01/13 08:04:02;;;;;;;8.80;5.30;;;;;;;7.15;100.00;100045.10;105193;1262;101473;-76
2023/01/13 08:06:48;;;;;;;10.60;5.10;;;;;;;7.17;100.00;100045.13;105519;1264;98956;-78
2023/01/13 08:09:33;;;;;;;12.70;5.70;;;;;;;7.18;100.00;100042.14;105471;1261;97941;-77
2023/01/13 08:15:23;;;;;;;11.70;5.40;;;;;;;7.20;100.00;100048.10;105161;1263;101498;-74
2023/01/13 08:18:09;;;;;;;10.20;5.30;;;;;;;7.20;100.00;100043.45;105179;1257;99110;-74
2023/01/13 08:20:54;;;;;;;12.80;5.20;;;;;;;7.21;100.00;100045.80;105160;1257;97948;-74
2023/01/13 08:23:41;;;;;;;12.00;5.40;;;;;;;7.23;100.00;100053.08;105092;1264;98069;-75
2023/01/13 08:26:27;;;;;;;7.90;4.90;;;;;;;7.25;100.00;100050.73;105179;1263;98285;-75
2023/01/13 08:29:12;;;;;;;8.30;4.70;;;;;;;7.26;100.00;100052.85;105367;1264;101351;-74
2023/01/13 08:31:58;;;;;;;10.30;5.60;;;;;;;7.27;100.00;100054.13;105083;1263;100052;-74
2023/01/13 08:34:43;;;;;;;12.90;5.30;;;;;;;7.29;100.00;100054.36;105446;1264;97980;-76
2023/01/13 08:37:29;;;;;;;9.80;5.50;;;;;;;7.30;100.00;100060.06;105264;1259;97989;-75
2023/01/13 08:40:16;;;;;;;9.80;5.80;;;;;;;7.32;100.00;100065.64;105312;1261;98044;-76
2023/01/13 08:43:01;;;;;;;10.80;5.10;;;;;;;7.34;100.00;100068.48;105119;1263;102614;-77
2023/01/13 08:45:55;;;;;;;11.00;5.30;;;;;;;7.35;100.00;100069.40;105357;1263;99221;-75
2023/01/13 08:48:41;;;;;;;8.90;5.70;;;;;;;7.37;100.00;100066.33;105375;1263;98060;-76
2023/01/13 08:51:26;;;;;;;11.20;4.90;;;;;;;7.38;100.00;100065.27;104972;1263;98144;-75
2023/01/13 08:54:12;;;;;;;9.20;5.50;;;;;;;7.39;100.00;100065.54;104960;1260;98435;-75
2023/01/13 08:56:58;;;;;;;11.20;4.70;;;;;;;7.41;100.00;100064.09;105177;1263;103587;-75
2023/01/13 08:59:45;;;;;;;11.40;5.50;;;;;;;7.43;100.00;100061.05;105099;1258;99082;-78
2023/01/13 09:02:30;;;;;;;12.00;4.90;;;;;;;7.44;100.00;100062.83;105107;1263;99215;-76
2023/01/13 09:05:16;;;;;;;8.40;4.50;;;;;;;7.46;100.00;100065.16;105133;1263;98137;-76
2023/01/13 09:08:01;;;;;;;11.30;4.60;;;;;;;7.51;100.00;100061.84;105182;1264;98401;-76
2023/01/13 09:10:47;;;;;;;7.10;4.70;;;;;;;7.58;100.00;100062.75;105166;1260;102078;-76
2023/01/13 09:13:32;;;;;;;8.70;4.80;;;;;;;7.61;100.00;100064.02;105156;1270;99112;-74
2023/01/13 09:16:18;;;;;;;7.30;4.80;;;;;;;7.62;100.00;100064.06;105299;1272;98137;-75
2023/01/13 09:19:03;;;;;;;8.40;4.90;;;;;;;7.64;100.00;100064.02;105369;1263;98844;-76
2023/01/13 09:21:49;;;;;;;12.10;5.00;;;;;;;7.65;100.00;100056.38;105435;1264;98507;-76
2023/01/13 09:24:34;;;;;;;8.60;4.60;;;;;;;7.66;100.00;100056.77;105279;1262;101336;-76
2023/01/13 09:27:20;;;;;;;10.00;5.60;;;;;;;7.67;100.00;100054.02;105182;1259;99836;-75
2023/01/13 09:30:08;;;;;;;15.10;5.60;;;;;;;7.68;100.00;100052.31;105084;1264;98106;-73
2023/01/13 09:34:58;;;;;;;10.10;6.10;;;;;;;7.69;100.00;100055.77;105083;1263;97981;-76
2023/01/13 09:36:02;;;;;;;8.50;4.50;;;;;;;7.71;100.00;100056.95;105243;1257;98597;-73
2023/01/13 09:38:50;;;;;;;8.40;5.00;;;;;;;7.72;100.00;100054.98;105251;1261;102342;-76
2023/01/13 09:45:12;;;;;;;12.30;5.30;;;;;;;7.76;100.00;100058.30;105198;1264;99436;-75
2023/01/13 09:48:18;;;;;;;8.20;4.40;;;;;;;7.76;100.00;100058.27;105078;1260;97948;-73
2023/01/13 09:51:19;;;;;;;8.90;4.70;;;;;;;7.77;100.00;100059.43;105183;1264;97922;-73
2023/01/13 09:54:31;;;;;;;10.10;5.10;;;;;;;7.77;100.00;100052.86;105304;1257;101303;-74
2023/01/13 09:57:18;;;;;;;10.00;5.20;;;;;;;7.77;100.00;100049.96;105101;1259;100455;-75
2023/01/13 10:00:10;;;;;;;10.30;5.10;;;;;;;7.77;100.00;100054.30;104993;1262;98839;-73
2023/01/13 10:03:12;;;;;;;13.00;5.80;;;;;;;7.76;100.00;100055.44;105085;1261;98058;-74
2023/01/13 10:06:16;;;;;;;11.60;5.30;;;;;;;7.76;100.00;100047.85;105133;1258;98877;-75
2023/01/13 10:09:01;;;;;;;11.00;5.80;;;;;;;7.76;100.00;100047.08;105142;1264;101400;-73
2023/01/13 10:14:54;;;;;;;12.80;5.90;;;;;;;7.77;100.00;100037.58;105072;1263;98088;-73
2023/01/13 10:18:13;;;;;;;11.60;5.90;;;;;;;7.77;100.00;100029.86;105093;1258;97960;-74
2023/01/13 10:21:27;;;;;;;12.60;7.20;;;;;;;7.79;100.00;100030.91;105143;1257;98565;-73
2023/01/13 10:24:37;;;;;;;14.60;6.40;;;;;;;7.83;100.00;100028.17;105278;1261;102586;-75
2023/01/13 10:27:37;;;;;;;15.40;6.60;;;;;;;7.86;100.00;100024.95;105492;1264;99075;-76
2023/01/13 10:30:32;;;;;;;13.50;7.10;;;;;;;7.89;100.00;100028.60;106798;1259;98980;-73
2023/01/13 10:33:24;;;;;;;10.20;6.60;;;;;;;7.93;100.00;100029.22;105011;1264;97966;-73
2023/01/13 10:36:13;;;;;;;11.00;6.20;;;;;;;7.96;100.00;100026.60;105370;1263;98429;-75
2023/01/13 10:39:14;;;;;;;10.80;6.60;;;;;;;8.00;100.00;100026.17;105108;1258;102909;-74
2023/01/13 10:42:05;;;;;;;11.30;6.50;;;;;;;8.02;100.00;100025.63;105159;1260;100667;-74
2023/01/13 10:44:58;;;;;;;13.90;5.90;;;;;;;8.04;100.00;100023.44;105317;1261;97972;-75
2023/01/13 10:48:05;;;;;;;15.60;6.50;;;;;;;8.06;100.00;100019.94;105185;1263;98590;-74
2023/01/13 10:50:51;;;;;;;15.20;6.70;;;;;;;8.09;100.00;100020.58;105133;1263;98473;-73
2023/01/13 10:53:49;;;;;;;10.20;5.50;;;;;;;8.11;100.00;100022.06;105262;1259;102614;-74
2023/01/13 10:56:35;;;;;;;10.10;5.70;;;;;;;8.14;100.00;100022.98;105089;1261;101571;-74
2023/01/13 10:59:25;;;;;;;12.60;5.60;;;;;;;8.16;100.00;100022.00;105138;1264;98961;-74
2023/01/13 11:02:25;;;;;;;12.70;6.90;;;;;;;8.17;100.00;100020.21;105123;1260;98054;-77
2023/01/13 11:05:24;;;;;;;11.30;5.50;;;;;;;8.19;100.00;100015.85;105219;1264;98460;-75
2023/01/13 11:08:21;;;;;;;12.30;6.00;;;;;;;8.22;100.00;100011.52;105248;1258;101455;-74
2023/01/13 11:11:26;;;;;;;11.80;6.10;;;;;;;8.24;100.00;100009.13;105039;1260;100445;-74
2023/01/13 11:14:32;;;;;;;15.40;6.10;;;;;;;8.26;100.00;100004.25;105066;1261;97980;-76
2023/01/13 11:17:52;;;;;;;13.70;6.10;;;;;;;8.26;100.00;100003.20;104985;1263;97973;-73
2023/01/13 11:20:41;;;;;;;8.90;5.00;;;;;;;8.27;100.00;100001.83;105173;1261;99382;-75
2023/01/13 11:23:35;;;;;;;10.30;5.60;;;;;;;8.29;100.00;100003.44;105255;1257;101355;-74
2023/01/13 11:26:28;;;;;;;7.60;5.00;;;;;;;8.32;100.00;100002.73;105103;1263;99106;-75
2023/01/13 11:29:23;;;;;;;10.20;5.60;;;;;;;8.36;100.00;100004.15;105109;1260;98651;-74
2023/01/13 11:32:16;;;;;;;12.30;5.80;;;;;;;8.39;100.00;100000.33;105196;1258;98067;-76
2023/01/13 11:35:15;;;;;;;9.50;5.10;;;;;;;8.42;100.00;99992.45;104977;1264;97949;-73
2023/01/13 11:38:46;;;;;;;16.50;5.70;;;;;;;8.46;100.00;99991.05;105168;1259;102607;-74
2023/01/13 11:41:35;;;;;;;9.60;5.60;;;;;;;8.49;100.00;99990.83;105220;1258;99325;-75
2023/01/13 11:44:40;;;;;;;9.30;4.90;;;;;;;8.52;100.00;99989.05;105246;1264;97962;-74
2023/01/13 11:47:26;;;;;;;13.60;6.10;;;;;;;8.57;100.00;99983.33;105164;1262;98018;-75
2023/01/13 11:50:16;;;;;;;12.50;5.70;;;;;;;8.63;100.00;99976.73;105080;1261;99130;-75
2023/01/13 11:53:32;;;;;;;10.70;5.10;;;;;;;8.69;100.00;99974.42;105149;1261;101351;-74
2023/01/13 11:56:37;;;;;;;10.30;4.70;;;;;;;8.72;100.00;99976.05;105087;1260;99889;-74
2023/01/13 11:59:50;;;;;;;13.70;5.20;;;;;;;8.74;100.00;99977.30;105046;1261;99267;-74
2023/01/13 12:03:13;;;;;;;12.70;5.40;;;;;;;8.75;100.00;99975.51;105001;1259;97984;-73
2023/01/13 12:06:08;;;;;;;8.80;5.50;;;;;;;8.77;100.00;99974.14;105086;1260;97877;-74
2023/01/13 12:09:21;;;;;;;8.20;5.10;;;;;;;8.79;100.00;99972.55;105189;1261;101722;-75
2023/01/13 12:12:26;;;;;;;8.90;5.20;;;;;;;8.82;100.00;99967.97;105171;1262;101434;-73
2023/01/13 12:15:14;;;;;;;9.50;4.90;;;;;;;8.85;100.00;99967.75;105072;1259;97991;-74
2023/01/13 12:18:54;;;;;;;9.10;5.30;;;;;;;8.89;100.00;99969.64;105236;1257;98488;-76
2023/01/13 12:21:55;;;;;;;8.80;4.50;;;;;;;8.92;100.00;99972.14;104675;1269;98919;-75
2023/01/13 12:24:50;;;;;;;11.80;4.90;;;;;;;8.94;99.89;99971.00;104666;1264;101556;-75
2023/01/13 12:27:50;;;;;;;7.50;5.00;;;;;;;8.96;99.97;99970.04;105159;1260;99369;-75
2023/01/13 12:30:53;;;;;;;11.70;6.40;;;;;;;8.98;99.83;99970.42;105060;1259;97945;-75
2023/01/13 12:34:16;;;;;;;9.90;5.20;;;;;;;8.98;99.47;99973.69;105185;1261;98611;-76
2023/01/13 12:37:11;;;;;;;9.60;5.20;;;;;;;8.97;99.02;99972.89;105188;1257;98476;-74
2023/01/13 12:40:12;;;;;;;8.90;5.00;;;;;;;8.97;98.93;99969.92;105104;1260;101356;-74
2023/01/13 12:46:22;;;;;;;9.00;4.80;;;;;;;8.98;98.93;99970.88;105127;1259;98136;-75
2023/01/13 12:49:25;;;;;;;10.30;5.40;;;;;;;8.97;98.81;99975.35;105089;1262;97942;-76
2023/01/13 12:52:13;;;;;;;12.10;5.70;;;;;;;8.97;99.10;99972.39;105036;1264;99257;-75
2023/01/13 12:55:02;;;;;;;8.50;4.90;;;;;;;8.98;99.35;99976.05;105103;1257;101429;-75
2023/01/13 12:58:03;;;;;;;8.60;5.10;;;;;;;8.98;99.42;99975.98;105101;1267;100370;-76
2023/01/13 13:00:56;;;;;;;9.80;5.30;;;;;;;8.98;99.67;99977.63;105206;1258;98425;-75
2023/01/13 13:04:24;;;;;;;8.90;5.00;;;;;;;8.98;99.58;99979.97;105127;1262;97949;-75
2023/01/13 13:07:19;;;;;;;10.10;4.80;;;;;;;8.97;99.45;99984.55;105396;1257;98400;-75
2023/01/13 13:10:30;;;;;;;9.20;5.40;;;;;;;8.97;99.54;99986.69;105545;1260;102577;-76
2023/01/13 13:13:41;;;;;;;7.90;4.90;;;;;;;8.96;99.53;99989.28;105241;1261;100315;-75
2023/01/13 13:16:28;;;;;;;12.30;4.90;;;;;;;8.97;99.53;99992.41;104987;1263;97977;-76
2023/01/13 13:19:16;;;;;;;10.40;5.90;;;;;;;8.97;99.62;99993.64;105167;1260;99989;-74
2023/01/13 13:22:11;;;;;;;11.90;5.50;;;;;;;8.96;99.61;99992.81;105138;1262;98488;-75
2023/01/13 13:24:56;;;;;;;9.70;5.40;;;;;;;8.95;99.56;99994.37;105165;1260;103090;-75
2023/01/13 13:28:13;;;;;;;9.10;5.60;;;;;;;8.95;99.57;99997.11;105183;1270;99241;-74
2023/01/13 13:31:16;;;;;;;10.70;5.20;;;;;;;8.94;99.85;99996.36;105163;1257;99273;-75
2023/01/13 13:34:36;;;;;;;11.90;5.60;;;;;;;8.90;99.80;99993.20;105205;1261;97980;-74
2023/01/13 13:37:27;;;;;;;11.30;5.90;;;;;;;8.87;99.85;99993.59;105061;1274;99139;-74
2023/01/13 13:46:47;;;;;;;12.00;6.50;;;;;;;8.80;100.00;99993.23;105077;1258;98295;-78
2023/01/13 13:49:45;;;;;;;11.10;5.90;;;;;;;8.80;100.00;99992.92;105031;1261;97996;-74
2023/01/13 13:52:55;;;;;;;9.20;6.00;;;;;;;8.79;100.00;99988.07;105093;1263;98522;-74
2023/01/13 13:55:52;;;;;;;13.60;5.40;;;;;;;8.77;100.00;99986.91;105022;1262;101327;-74
2023/01/13 13:58:39;;;;;;;8.90;4.70;;;;;;;8.76;100.00;99997.53;105111;1260;99100;-74
2023/01/13 14:01:31;;;;;;;7.50;4.40;;;;;;;8.75;100.00;100000.45;105042;1259;98979;-75